createdAt,value
2022-12-08T00:01:27.553Z,0.70
2022-12-08T00:03:56.628Z,0.70
2022-12-08T00:06:51.406Z,0.60
2022-12-08T00:09:32.053Z,0.60
2022-12-08T00:12:14.141Z,0.60
2022-12-08T00:14:46.747Z,0.60
2022-12-08T00:17:16.553Z,0.60
2022-12-08T00:19:43.919Z,0.60
2022-12-08T00:22:13.029Z,0.60
2022-12-08T00:24:41.799Z,0.60
2022-12-08T00:27:10.966Z,0.60
2022-12-08T00:29:38.852Z,0.70
2022-12-08T00:32:07.117Z,0.70
2022-12-08T00:34:35.482Z,0.70
2022-12-08T00:37:03.266Z,0.70
2022-12-08T00:39:30.699Z,0.70
2022-12-08T00:42:12.920Z,0.70
2022-12-08T00:44:45.162Z,0.70
2022-12-08T00:47:14.372Z,0.70
2022-12-08T00:49:41.839Z,0.70
2022-12-08T00:52:09.476Z,0.70
2022-12-08T00:54:37.225Z,0.70
2022-12-08T00:57:04.757Z,0.70
2022-12-08T00:59:32.260Z,0.70
2022-12-08T01:02:00.528Z,0.70
2022-12-08T01:04:27.988Z,0.70
2022-12-08T01:06:55.744Z,0.70
2022-12-08T01:09:23.324Z,0.70
2022-12-08T01:11:50.889Z,0.70
2022-12-08T01:14:18.383Z,0.70
2022-12-08T01:16:46.027Z,0.70
2022-12-08T01:19:15.859Z,0.70
2022-12-08T01:21:43.534Z,0.70
2022-12-08T01:24:13.672Z,0.70
2022-12-08T01:26:41.738Z,0.70
2022-12-08T01:29:10.228Z,0.70
2022-12-08T01:31:38.016Z,0.70
2022-12-08T01:34:06.332Z,0.70
2022-12-08T01:36:38.724Z,0.70
2022-12-08T01:39:13.986Z,0.70
2022-12-08T01:41:44.003Z,0.70
2022-12-08T01:44:11.359Z,0.70
2022-12-08T01:46:48.711Z,0.70
2022-12-08T01:49:40.947Z,0.70
2022-12-08T01:52:32.940Z,0.70
2022-12-08T01:55:17.380Z,0.70
2022-12-08T01:57:49.601Z,0.70
2022-12-08T02:00:19.653Z,0.70
2022-12-08T02:02:50.698Z,0.60
2022-12-08T02:05:21.151Z,0.60
2022-12-08T02:07:49.791Z,0.60
2022-12-08T02:10:22.402Z,0.60
2022-12-08T02:12:52.953Z,0.60
2022-12-08T02:15:25.372Z,0.60
2022-12-08T02:18:28.101Z,0.60
2022-12-08T02:21:09.316Z,0.60
2022-12-08T02:24:02.895Z,0.60
2022-12-08T02:26:59.100Z,0.60
2022-12-08T02:29:53.024Z,0.60
2022-12-08T02:32:58.038Z,0.60
2022-12-08T02:35:25.457Z,0.60
2022-12-08T02:38:19.531Z,0.60
2022-12-08T02:41:12.571Z,0.60
2022-12-08T02:44:13.412Z,0.60
2022-12-08T02:47:03.722Z,0.60
2022-12-08T02:49:35.660Z,0.60
2022-12-08T02:52:15.212Z,0.60
2022-12-08T02:54:47.901Z,0.60
2022-12-08T02:57:29.854Z,0.50
2022-12-08T03:00:14.096Z,0.60
2022-12-08T03:02:53.694Z,0.60
2022-12-08T03:05:47.889Z,0.60
2022-12-08T03:08:17.450Z,0.60
2022-12-08T03:10:49.252Z,0.60
2022-12-08T03:13:21.265Z,0.50
2022-12-08T03:15:51.420Z,0.60
2022-12-08T03:18:23.079Z,0.60
2022-12-08T03:20:51.594Z,0.60
2022-12-08T03:23:20.510Z,0.60
2022-12-08T03:26:01.542Z,0.60
2022-12-08T03:28:29.014Z,0.60
2022-12-08T03:31:00.290Z,0.60
2022-12-08T03:33:33.383Z,0.60
2022-12-08T03:36:05.222Z,0.60
2022-12-08T03:38:44.269Z,0.60
2022-12-08T03:41:21.486Z,0.60
2022-12-08T03:44:01.668Z,0.60
2022-12-08T03:48:58.320Z,0.60
2022-12-08T03:51:27.493Z,0.60
2022-12-08T03:53:54.945Z,0.60
2022-12-08T03:56:37.291Z,0.60
2022-12-08T03:59:05.826Z,0.60
2022-12-08T04:01:33.643Z,0.60
2022-12-08T04:04:01.130Z,0.60
2022-12-08T04:06:29.050Z,0.60
2022-12-08T04:08:56.575Z,0.60
2022-12-08T04:11:24.111Z,0.60
2022-12-08T04:13:51.972Z,0.60
2022-12-08T04:16:25.274Z,0.60
2022-12-08T04:18:53.178Z,0.60
2022-12-08T04:21:21.164Z,0.60
2022-12-08T04:23:49.474Z,0.70
2022-12-08T04:26:17.722Z,0.70
2022-12-08T04:28:45.818Z,0.70
2022-12-08T04:31:13.286Z,0.70
2022-12-08T04:33:40.706Z,0.70
2022-12-08T04:36:09.315Z,0.60
2022-12-08T04:38:36.799Z,0.70
2022-12-08T04:41:04.557Z,0.70
2022-12-08T04:43:32.279Z,0.70
2022-12-08T04:45:59.965Z,0.60
2022-12-08T04:48:27.353Z,0.60
2022-12-08T04:50:55.016Z,0.70
2022-12-08T04:53:22.865Z,0.70
2022-12-08T04:55:52.080Z,0.70
2022-12-08T04:58:20.939Z,0.70
2022-12-08T05:00:49.054Z,0.70
2022-12-08T05:03:16.667Z,0.70
2022-12-08T05:05:44.884Z,0.70
2022-12-08T05:08:12.730Z,0.70
2022-12-08T05:10:40.634Z,0.70
2022-12-08T05:13:08.867Z,0.70
2022-12-08T05:15:36.493Z,0.70
2022-12-08T05:18:07.567Z,0.70
2022-12-08T05:20:35.498Z,0.70
2022-12-08T05:23:03.345Z,0.70
2022-12-08T05:25:30.764Z,0.70
2022-12-08T05:28:17.517Z,0.70
2022-12-08T05:30:45.637Z,0.70
2022-12-08T05:33:13.268Z,0.60
2022-12-08T05:35:40.817Z,0.50
2022-12-08T05:38:08.416Z,0.40
2022-12-08T05:40:37.469Z,0.40
2022-12-08T05:43:04.962Z,0.40
2022-12-08T05:45:32.398Z,0.40
2022-12-08T05:48:00.079Z,0.40
2022-12-08T05:50:27.569Z,0.40
2022-12-08T05:52:54.906Z,0.30
2022-12-08T05:55:22.356Z,0.30
2022-12-08T05:57:49.898Z,0.30
2022-12-08T06:00:18.350Z,0.30
2022-12-08T06:02:45.750Z,0.30
2022-12-08T06:05:13.646Z,0.30
2022-12-08T06:07:41.160Z,0.30
2022-12-08T06:10:09.217Z,0.30
2022-12-08T06:12:36.642Z,0.20
2022-12-08T06:15:04.476Z,0.20
2022-12-08T06:17:31.968Z,0.20
2022-12-08T06:19:59.514Z,0.20
2022-12-08T06:22:27.113Z,0.20
2022-12-08T06:24:54.872Z,0.10
2022-12-08T06:27:22.761Z,0.10
2022-12-08T06:29:50.458Z,0.10
2022-12-08T06:32:21.794Z,0.10
2022-12-08T06:34:51.822Z,0.10
2022-12-08T06:37:20.518Z,0.10
2022-12-08T06:39:48.767Z,0.10
2022-12-08T06:42:34.703Z,0.10
2022-12-08T06:45:02.423Z,0.10
2022-12-08T06:47:29.936Z,0.10
2022-12-08T06:49:57.447Z,0.10
2022-12-08T06:52:24.908Z,0.10
2022-12-08T06:54:52.656Z,0.10
2022-12-08T06:57:20.997Z,0.10
2022-12-08T06:59:48.394Z,0.10
2022-12-08T07:02:16.392Z,0.10
2022-12-08T07:04:44.361Z,0.10
2022-12-08T07:07:11.967Z,0.10
2022-12-08T07:09:39.478Z,0.10
2022-12-08T07:12:07.289Z,0.10
2022-12-08T07:14:35.148Z,0.10
2022-12-08T07:17:02.812Z,0.20
2022-12-08T07:19:30.434Z,0.20
2022-12-08T07:21:58.038Z,0.20
2022-12-08T07:24:25.369Z,0.20
2022-12-08T07:26:52.842Z,0.30
2022-12-08T07:29:25.947Z,0.30
2022-12-08T07:31:53.850Z,0.30
2022-12-08T07:34:21.699Z,0.40
2022-12-08T07:36:49.587Z,0.40
2022-12-08T07:39:17.932Z,0.50
2022-12-08T07:41:45.899Z,0.50
2022-12-08T07:44:13.545Z,0.50
2022-12-08T07:46:41.422Z,0.50
2022-12-08T07:49:10.940Z,0.50
2022-12-08T07:51:38.851Z,0.50
2022-12-08T07:54:06.915Z,0.60
2022-12-08T07:56:35.264Z,0.60
2022-12-08T07:59:03.079Z,0.60
2022-12-08T08:01:32.555Z,0.60
2022-12-08T08:04:02.413Z,0.60
2022-12-08T08:06:30.579Z,0.60
2022-12-08T08:08:58.551Z,0.60
2022-12-08T08:11:26.281Z,0.60
2022-12-08T08:13:54.051Z,0.70
2022-12-08T08:16:22.185Z,0.70
2022-12-08T08:18:53.267Z,0.60
2022-12-08T08:21:44.353Z,0.70
2022-12-08T08:24:10.616Z,0.70
2022-12-08T08:26:38.521Z,0.80
2022-12-08T08:29:06.023Z,0.80
2022-12-08T08:31:33.439Z,0.80
2022-12-08T08:34:05.305Z,0.90
2022-12-08T08:36:33.399Z,0.80
2022-12-08T08:39:00.849Z,0.80
2022-12-08T08:41:28.280Z,0.80
2022-12-08T08:43:56.258Z,0.90
2022-12-08T08:46:24.055Z,1.00
2022-12-08T08:48:52.300Z,1.00
2022-12-08T08:51:20.365Z,1.00
2022-12-08T08:53:48.025Z,1.10
2022-12-08T08:56:21.374Z,1.10
2022-12-08T08:58:49.784Z,1.10
2022-12-08T09:01:23.788Z,1.00
2022-12-08T09:03:52.502Z,0.90
2022-12-08T09:06:21.330Z,0.90
2022-12-08T09:08:49.145Z,0.90
2022-12-08T09:11:18.949Z,0.90
2022-12-08T09:13:51.380Z,0.90
2022-12-08T09:16:19.505Z,1.00
2022-12-08T09:18:49.682Z,0.90
2022-12-08T09:21:23.167Z,1.00
2022-12-08T09:23:57.059Z,1.10
2022-12-08T09:26:26.320Z,1.00
2022-12-08T09:28:55.314Z,1.10
2022-12-08T09:31:24.822Z,1.10
2022-12-08T09:33:53.713Z,1.10
2022-12-08T09:36:21.977Z,1.10
2022-12-08T09:38:50.564Z,1.00
2022-12-08T09:41:37.582Z,1.10
2022-12-08T09:44:39.145Z,1.10
2022-12-08T09:47:17.831Z,1.10
2022-12-08T09:49:57.129Z,1.20
2022-12-08T09:53:09.295Z,1.40
2022-12-08T09:55:45.650Z,1.80
2022-12-08T09:58:46.235Z,1.70
2022-12-08T10:01:14.530Z,1.80
2022-12-08T10:03:42.731Z,1.90
2022-12-08T10:06:13.139Z,2.00
2022-12-08T10:09:08.854Z,2.10
2022-12-08T10:11:51.879Z,2.10
2022-12-08T10:14:32.385Z,2.00
2022-12-08T10:17:10.686Z,2.10
2022-12-08T10:19:41.084Z,2.20
2022-12-08T10:22:44.330Z,2.20
2022-12-08T10:25:22.675Z,2.10
2022-12-08T10:27:53.860Z,2.00
2022-12-08T10:30:23.611Z,2.00
2022-12-08T10:32:54.764Z,2.10
2022-12-08T10:35:24.156Z,2.20
2022-12-08T10:38:07.375Z,2.10
2022-12-08T10:40:45.314Z,2.10
2022-12-08T10:43:24.669Z,2.10
2022-12-08T10:45:52.661Z,2.00
2022-12-08T10:48:34.976Z,1.80
2022-12-08T10:51:05.826Z,1.80
2022-12-08T10:53:34.865Z,1.80
2022-12-08T10:56:02.140Z,1.80
2022-12-08T10:58:37.451Z,1.80
2022-12-08T11:01:26.780Z,1.70
2022-12-08T11:03:59.362Z,1.70
2022-12-08T11:06:38.979Z,2.10
2022-12-08T11:09:17.808Z,2.90
2022-12-08T11:11:51.522Z,3.20
2022-12-08T11:14:28.889Z,3.50
2022-12-08T11:17:06.215Z,4.00
2022-12-08T11:19:38.717Z,4.80
2022-12-08T11:22:24.740Z,5.50
2022-12-08T11:25:20.670Z,6.00
2022-12-08T11:27:53.170Z,5.70
2022-12-08T11:30:31.399Z,5.60
2022-12-08T11:33:24.751Z,5.60
2022-12-08T11:36:13.932Z,5.80
2022-12-08T11:38:49.478Z,5.10
2022-12-08T11:41:26.251Z,3.60
2022-12-08T11:44:15.754Z,3.30
2022-12-08T11:47:01.505Z,2.70
2022-12-08T11:49:43.111Z,2.10
2022-12-08T11:52:32.123Z,1.80
2022-12-08T11:55:21.093Z,2.10
2022-12-08T11:57:51.406Z,2.00
2022-12-08T12:00:20.176Z,1.90
2022-12-08T12:03:00.028Z,1.80
2022-12-08T12:06:12.602Z,1.90
2022-12-08T12:08:54.822Z,1.90
2022-12-08T12:12:19.547Z,2.10
2022-12-08T12:14:59.234Z,2.10
2022-12-08T12:17:44.821Z,2.10
2022-12-08T12:20:24.423Z,2.00
2022-12-08T12:23:08.365Z,1.80
2022-12-08T12:25:37.305Z,1.70
2022-12-08T12:28:08.666Z,1.60
2022-12-08T12:31:06.874Z,1.40
2022-12-08T12:33:35.884Z,1.30
2022-12-08T12:36:07.614Z,1.20
2022-12-08T12:38:54.956Z,1.00
2022-12-08T12:41:42.386Z,1.00
2022-12-08T12:44:24.269Z,0.90
2022-12-08T12:46:51.831Z,0.80
2022-12-08T12:49:41.059Z,0.80
2022-12-08T12:52:17.472Z,0.70
2022-12-08T12:54:50.785Z,0.60
2022-12-08T12:57:21.211Z,0.60
2022-12-08T13:00:17.814Z,0.50
2022-12-08T13:02:45.399Z,0.50
2022-12-08T13:05:35.760Z,0.50
2022-12-08T13:08:16.323Z,0.40
2022-12-08T13:11:04.809Z,0.30
2022-12-08T13:13:33.084Z,0.10
2022-12-08T13:16:20.614Z,0.00
2022-12-08T13:18:51.065Z,-0.10
2022-12-08T13:21:23.968Z,-0.20
2022-12-08T13:24:28.663Z,-0.20
2022-12-08T13:27:05.240Z,-0.20
2022-12-08T13:29:34.789Z,-0.30
2022-12-08T13:32:23.458Z,-0.30
2022-12-08T13:34:56.581Z,-0.40
2022-12-08T13:37:53.993Z,-0.40
2022-12-08T13:40:25.339Z,-0.50
2022-12-08T13:43:17.406Z,-0.60
2022-12-08T13:55:35.469Z,-0.70
2022-12-08T13:57:33.221Z,-0.80
2022-12-08T14:00:02.671Z,-0.80
2022-12-08T14:02:42.229Z,-1.00
2022-12-08T14:05:26.291Z,-1.00
2022-12-08T14:07:59.019Z,-1.10
2022-12-08T14:10:32.338Z,-1.20
2022-12-08T14:13:07.186Z,-1.20
2022-12-08T14:15:38.329Z,-1.10
2022-12-08T14:18:07.549Z,-1.20
2022-12-08T14:20:57.671Z,-1.20
2022-12-08T14:23:24.073Z,-1.20
2022-12-08T14:25:51.553Z,-1.20
2022-12-08T14:28:19.625Z,-1.20
2022-12-08T14:30:50.111Z,-1.20
2022-12-08T14:33:17.737Z,-1.20
2022-12-08T14:35:55.210Z,-1.20
2022-12-08T14:38:24.998Z,-1.20
2022-12-08T14:41:06.286Z,-1.20
2022-12-08T14:43:34.725Z,-1.10
2022-12-08T14:46:05.508Z,-1.10
2022-12-08T14:48:36.831Z,-1.20
2022-12-08T14:51:04.389Z,-1.20
2022-12-08T14:53:40.052Z,-1.20
2022-12-08T14:56:22.249Z,-1.30
2022-12-08T14:59:08.616Z,-1.30
2022-12-08T15:01:37.273Z,-1.30
2022-12-08T15:04:14.339Z,-1.30
2022-12-08T15:07:04.384Z,-1.30
2022-12-08T15:09:47.605Z,-1.40
2022-12-08T15:12:15.121Z,-1.30
2022-12-08T15:15:17.815Z,-1.40
2022-12-08T15:17:58.682Z,-1.30
2022-12-08T15:20:33.132Z,-1.30
2022-12-08T15:23:03.435Z,-1.30
2022-12-08T15:25:31.884Z,-1.20
2022-12-08T15:27:59.707Z,-1.20
2022-12-08T15:30:27.198Z,-1.30
2022-12-08T15:32:56.528Z,-1.30
2022-12-08T15:35:23.959Z,-1.30
2022-12-08T15:37:51.547Z,-1.30
2022-12-08T15:40:21.933Z,-1.30
2022-12-08T15:42:49.923Z,-1.30
2022-12-08T15:45:18.289Z,-1.30
2022-12-08T15:47:46.482Z,-1.30
2022-12-08T15:50:19.390Z,-1.30
2022-12-08T15:52:47.146Z,-1.30
2022-12-08T15:55:16.369Z,-1.20
2022-12-08T15:58:51.047Z,-1.20
2022-12-08T16:00:53.377Z,-1.20
2022-12-08T16:04:08.915Z,-1.20
2022-12-08T16:09:13.142Z,-1.10
2022-12-08T16:12:09.423Z,-1.10
2022-12-08T16:17:27.524Z,-1.00
2022-12-08T16:19:55.716Z,-1.10
2022-12-08T16:25:18.763Z,-1.10
2022-12-08T16:30:37.316Z,-1.00
2022-12-08T16:33:05.283Z,-1.10
2022-12-08T16:35:32.995Z,-1.00
2022-12-08T16:38:00.514Z,-1.10
2022-12-08T16:40:27.980Z,-1.00
2022-12-08T16:42:55.345Z,-1.00
2022-12-08T16:45:24.074Z,-1.00
2022-12-08T16:47:56.687Z,-1.00
2022-12-08T16:50:30.041Z,-1.00
2022-12-08T16:53:00.529Z,-1.00
2022-12-08T16:55:28.548Z,-0.90
2022-12-08T16:57:56.445Z,-0.90
2022-12-08T17:00:26.887Z,-0.90
2022-12-08T17:02:55.672Z,-0.90
2022-12-08T17:05:25.043Z,-0.80
2022-12-08T17:07:53.396Z,-0.80
2022-12-08T17:10:23.510Z,-0.80
2022-12-08T17:12:52.254Z,-0.70
2022-12-08T17:15:22.448Z,-0.70
2022-12-08T17:17:49.913Z,-0.70
2022-12-08T17:20:20.570Z,-0.60
2022-12-08T17:22:48.780Z,-0.60
2022-12-08T17:25:16.633Z,-0.60
2022-12-08T17:27:44.102Z,-0.50
2022-12-08T17:30:15.909Z,-0.50
2022-12-08T17:32:43.825Z,-0.40
2022-12-08T17:35:11.683Z,-0.30
2022-12-08T17:37:39.170Z,-0.30
2022-12-08T17:40:07.527Z,-0.20
2022-12-08T17:42:35.227Z,-0.20
2022-12-08T17:45:02.664Z,-0.10
2022-12-08T17:47:30.184Z,-0.10
2022-12-08T17:49:58.118Z,-0.10
2022-12-08T17:52:25.448Z,0.00
2022-12-08T17:54:52.872Z,0.00
2022-12-08T17:57:20.275Z,0.00
2022-12-08T17:59:47.902Z,0.00
2022-12-08T18:02:15.438Z,0.00
2022-12-08T18:04:42.932Z,0.00
2022-12-08T18:07:10.238Z,0.00
2022-12-08T18:09:37.755Z,0.00
2022-12-08T18:12:05.340Z,0.00
2022-12-08T18:14:32.800Z,-0.10
2022-12-08T18:17:00.841Z,-0.10
2022-12-08T18:19:28.266Z,-0.10
2022-12-08T18:21:55.649Z,-0.10
2022-12-08T18:24:24.475Z,-0.10
2022-12-08T18:26:52.797Z,-0.20
2022-12-08T18:29:22.890Z,-0.20
2022-12-08T18:31:50.770Z,-0.20
2022-12-08T18:34:19.525Z,-0.20
2022-12-08T18:36:47.786Z,-0.20
2022-12-08T18:39:41.483Z,-0.20
2022-12-08T18:42:24.102Z,-0.30
2022-12-08T18:44:59.242Z,-0.30
2022-12-08T18:47:26.701Z,-0.30
2022-12-08T18:49:54.190Z,-0.30
2022-12-08T18:52:28.200Z,-0.30
2022-12-08T18:55:07.428Z,-0.30
2022-12-08T18:57:40.045Z,-0.30
2022-12-08T19:00:09.883Z,-0.30
2022-12-08T19:02:37.755Z,-0.30
2022-12-08T19:05:06.140Z,-0.30
2022-12-08T19:07:33.646Z,-0.40
2022-12-08T19:10:01.383Z,-0.40
2022-12-08T19:12:29.022Z,-0.50
2022-12-08T19:14:57.097Z,-0.40
2022-12-08T19:17:26.157Z,-0.40
2022-12-08T19:19:53.527Z,-0.40
2022-12-08T19:22:20.896Z,-0.50
2022-12-08T19:24:48.371Z,-0.50
2022-12-08T19:27:15.709Z,-0.50
2022-12-08T19:29:43.245Z,-0.50
2022-12-08T19:32:10.884Z,-0.50
2022-12-08T19:34:38.420Z,-0.50
2022-12-08T19:37:07.270Z,-0.50
2022-12-08T19:39:53.279Z,-0.50
2022-12-08T19:42:40.170Z,-0.60
2022-12-08T19:45:14.002Z,-0.60
2022-12-08T19:47:41.972Z,-0.60
2022-12-08T19:50:29.481Z,-0.70
2022-12-08T19:52:57.251Z,-0.70
2022-12-08T19:55:25.747Z,-0.70
2022-12-08T19:57:54.207Z,-0.70
2022-12-08T20:00:22.143Z,-0.70
2022-12-08T20:02:50.229Z,-0.70
2022-12-08T20:05:17.701Z,-0.70
2022-12-08T20:07:45.499Z,-0.80
2022-12-08T20:10:17.369Z,-0.70
2022-12-08T20:12:44.992Z,-0.80
2022-12-08T20:15:12.552Z,-0.80
2022-12-08T20:17:40.295Z,-0.80
2022-12-08T20:20:09.584Z,-0.80
2022-12-08T20:22:37.389Z,-0.80
2022-12-08T20:25:05.234Z,-0.90
2022-12-08T20:27:33.934Z,-0.90
2022-12-08T20:30:01.393Z,-0.90
2022-12-08T20:32:28.912Z,-0.90
2022-12-08T20:34:56.732Z,-1.00
2022-12-08T20:37:24.142Z,-1.00
2022-12-08T20:39:52.816Z,-1.00
2022-12-08T20:42:20.506Z,-1.00
2022-12-08T20:44:48.112Z,-1.00
2022-12-08T20:47:16.508Z,-1.00
2022-12-08T20:49:43.953Z,-1.10
2022-12-08T20:52:11.353Z,-1.10
2022-12-08T20:54:39.183Z,-1.00
2022-12-08T20:57:06.665Z,-1.10
2022-12-08T20:59:34.538Z,-1.00
2022-12-08T21:02:02.219Z,-1.10
2022-12-08T21:04:29.818Z,-1.10
2022-12-08T21:06:57.280Z,-1.10
2022-12-08T21:09:24.783Z,-1.10
2022-12-08T21:11:53.128Z,-1.10
2022-12-08T21:14:20.817Z,-1.10
2022-12-08T21:16:51.063Z,-1.10
2022-12-08T21:19:20.303Z,-1.20
2022-12-08T21:21:47.930Z,-1.20
2022-12-08T21:24:16.087Z,-1.20
2022-12-08T21:26:43.655Z,-1.20
2022-12-08T21:29:12.840Z,-1.20
2022-12-08T21:31:40.933Z,-1.20
2022-12-08T21:34:08.897Z,-1.20
2022-12-08T21:36:36.684Z,-1.20
2022-12-08T21:39:11.295Z,-1.30
2022-12-08T21:41:57.979Z,-1.30
2022-12-08T21:44:25.622Z,-1.20
2022-12-08T21:46:53.774Z,-1.20
2022-12-08T21:49:21.395Z,-1.20
2022-12-08T21:51:49.084Z,-1.30
2022-12-08T21:54:19.011Z,-1.30
2022-12-08T21:56:48.318Z,-1.30
2022-12-08T21:59:16.772Z,-1.30
2022-12-08T22:01:44.807Z,-1.30
2022-12-08T22:04:16.572Z,-1.20
2022-12-08T22:06:44.524Z,-1.30
2022-12-08T22:09:13.735Z,-1.30
2022-12-08T22:11:42.511Z,-1.30
2022-12-08T22:14:14.456Z,-1.30
2022-12-08T22:16:43.096Z,-1.30
2022-12-08T22:19:11.035Z,-1.30
2022-12-08T22:21:38.811Z,-1.30
2022-12-08T22:24:06.719Z,-1.30
2022-12-08T22:26:34.805Z,-1.30
2022-12-08T22:29:02.501Z,-1.40
2022-12-08T22:31:29.969Z,-1.40
2022-12-08T22:33:59.797Z,-1.40
2022-12-08T22:36:27.702Z,-1.40
2022-12-08T22:38:55.317Z,-1.40
2022-12-08T22:41:23.505Z,-1.40
2022-12-08T22:43:51.757Z,-1.40
2022-12-08T22:46:22.342Z,-1.50
2022-12-08T22:48:51.473Z,-1.40
2022-12-08T22:51:19.804Z,-1.40
2022-12-08T22:53:47.909Z,-1.40
2022-12-08T22:56:16.264Z,-1.40
2022-12-08T22:58:44.680Z,-1.40
2022-12-08T23:01:26.765Z,-1.50
2022-12-08T23:03:54.329Z,-1.50
2022-12-08T23:06:22.152Z,-1.40
2022-12-08T23:08:49.911Z,-1.40
2022-12-08T23:11:18.512Z,-1.40
2022-12-08T23:13:46.614Z,-1.40
2022-12-08T23:16:14.593Z,-1.40
2022-12-08T23:18:44.457Z,-1.50
2022-12-08T23:21:17.230Z,-1.40
2022-12-08T23:23:44.773Z,-1.50
2022-12-08T23:26:27.315Z,-1.50
2022-12-08T23:28:55.966Z,-1.50
2022-12-08T23:31:25.825Z,-1.60
2022-12-08T23:33:54.266Z,-1.50
2022-12-08T23:36:25.345Z,-1.60
2022-12-08T23:38:54.253Z,-1.60
2022-12-08T23:41:22.082Z,-1.50
2022-12-08T23:43:51.328Z,-1.50
2022-12-08T23:46:21.224Z,-1.60
2022-12-08T23:48:49.107Z,-1.60
2022-12-08T23:51:17.281Z,-1.70
2022-12-08T23:53:45.929Z,-1.70
2022-12-08T23:56:16.330Z,-1.70
2022-12-08T23:58:44.576Z,-1.60
